Time;durP1;ratioP1;P1;durP2;ratioP2;P2;SDS_P1;SDS_P2;PMS_P1;PMS_P2;Temp;Humidity;BMP_temperature;BMP_pressure;BME280_temperature;BME280_humidity;BME280_pressure;Samples;Min_cycle;Max_cycle;Signal;HPM_P1;HPM_P2
2023/03/27 00:01:03;;;;;;;;;;;;;;;5.78;nan;99664.00;5010980;28;19924;-87
2023/03/27 00:03:29;;;;;;;;;;;;;;;5.74;nan;99674.78;5009344;28;20390;-86
2023/03/27 00:06:15;;;;;;;;;;;;;;;5.68;nan;99680.59;5010335;28;19956;-87
2023/03/27 00:08:41;;;;;;;;;;;;;;;5.69;nan;99697.16;5027011;28;19948;-86
2023/03/27 00:11:07;;;;;;;;;;;;;;;5.62;nan;99678.50;5012951;28;19917;-87
2023/03/27 00:13:32;;;;;;;;;;;;;;;5.58;nan;99695.53;5031019;28;19928;-85
2023/03/27 00:15:58;;;;;;;;;;;;;;;5.53;nan;99700.38;5012874;28;19919;-88
2023/03/27 00:18:25;;;;;;;;;;;;;;;5.48;nan;99711.25;5031939;28;20037;-87
2023/03/27 00:20:50;;;;;;;;;;;;;;;5.42;nan;99710.97;5012819;28;19945;-87
2023/03/27 00:23:16;;;;;;;;;;;;;;;5.39;nan;99713.91;5021386;28;19917;-87
2023/03/27 00:25:41;;;;;;;;;;;;;;;5.38;nan;99722.72;5014338;28;19956;-87
2023/03/27 00:28:09;;;;;;;;;;;;;;;5.35;nan;99728.22;5024307;28;19917;-88
2023/03/27 00:30:36;;;;;;;;;;;;;;;5.30;nan;99728.66;5011978;28;19921;-88
2023/03/27 00:33:01;;;;;;;;;;;;;;;5.22;nan;99733.72;5014708;28;19913;-86
2023/03/27 00:35:28;;;;;;;;;;;;;;;5.15;nan;99743.94;5022239;28;19971;-87
2023/03/27 00:37:53;;;;;;;;;;;;;;;5.08;nan;99742.84;5024891;28;19921;-87
2023/03/27 00:40:18;;;;;;;;;;;;;;;5.03;nan;99745.88;5013428;28;20524;-87
2023/03/27 00:42:45;;;;;;;;;;;;;;;4.93;nan;99752.84;5033980;28;19921;-85
2023/03/27 00:45:15;;;;;;;;;;;;;;;4.82;nan;99755.59;5016688;28;19917;-87
2023/03/27 00:47:40;;;;;;;;;;;;;;;4.70;nan;99754.88;5016916;28;19921;-85
2023/03/27 00:50:09;;;;;;;;;;;;;;;4.59;nan;99765.44;5018524;28;19923;-86
2023/03/27 00:52:36;;;;;;;;;;;;;;;4.49;nan;99769.81;5016957;28;19939;-86
2023/03/27 00:55:07;;;;;;;;;;;;;;;4.39;nan;99786.31;5020879;28;19921;-86
2023/03/27 00:57:32;;;;;;;;;;;;;;;4.38;nan;99791.66;5039131;28;19973;-86
2023/03/27 00:59:58;;;;;;;;;;;;;;;4.28;nan;99791.63;5035546;28;20517;-86
2023/03/27 01:02:25;;;;;;;;;;;;;;;4.28;nan;99799.47;5029648;28;19948;-86
2023/03/27 01:04:50;;;;;;;;;;;;;;;4.25;nan;99803.16;5014741;28;19922;-84
2023/03/27 01:07:16;;;;;;;;;;;;;;;4.19;nan;99803.66;5014190;28;19921;-87
2023/03/27 01:09:41;;;;;;;;;;;;;;;4.15;nan;99814.56;5034857;28;19932;-86
2023/03/27 01:12:12;;;;;;;;;;;;;;;4.13;nan;99817.28;5029540;28;19916;-86
2023/03/27 01:14:49;;;;;;;;;;;;;;;4.14;nan;99818.94;5029783;28;19925;-87
2023/03/27 01:17:21;;;;;;;;;;;;;;;4.12;nan;99820.84;5027878;28;20305;-85
2023/03/27 01:19:56;;;;;;;;;;;;;;;4.16;nan;99839.75;5028102;28;20251;-87
2023/03/27 01:22:41;;;;;;;;;;;;;;;4.13;nan;99837.41;5027802;28;19924;-85
2023/03/27 01:25:09;;;;;;;;;;;;;;;4.13;nan;99845.25;5026391;28;19916;-85
2023/03/27 01:27:53;;;;;;;;;;;;;;;4.09;nan;99854.28;5009609;28;19925;-85
2023/03/27 01:30:22;;;;;;;;;;;;;;;4.03;nan;99851.22;5027238;28;19925;-86
2023/03/27 01:33:06;;;;;;;;;;;;;;;3.98;nan;99856.00;5018906;28;19951;-85
2023/03/27 01:35:42;;;;;;;;;;;;;;;3.97;nan;99863.97;5030768;28;20429;-85
2023/03/27 01:38:27;;;;;;;;;;;;;;;3.90;nan;99868.88;5005684;28;19925;-87
2023/03/27 01:40:57;;;;;;;;;;;;;;;3.88;nan;99872.56;5013653;28;19917;-85
2023/03/27 01:43:33;;;;;;;;;;;;;;;3.84;nan;99882.47;5013042;28;19918;-85
2023/03/27 01:46:10;;;;;;;;;;;;;;;3.81;nan;99886.16;5017748;28;19917;-84
2023/03/27 01:48:42;;;;;;;;;;;;;;;3.83;nan;99892.06;5032643;28;19917;-85
2023/03/27 01:51:10;;;;;;;;;;;;;;;3.81;nan;99899.25;5030453;28;20297;-84
2023/03/27 01:53:39;;;;;;;;;;;;;;;3.81;nan;99903.63;5027027;28;20553;-86
2023/03/27 01:56:25;;;;;;;;;;;;;;;3.81;nan;99909.69;5018211;28;19932;-84
2023/03/27 01:58:53;;;;;;;;;;;;;;;3.72;nan;99912.19;5008763;28;20317;-85
2023/03/27 02:01:22;;;;;;;;;;;;;;;3.61;nan;99916.50;5005916;28;19917;-84
2023/03/27 02:03:50;;;;;;;;;;;;;;;3.59;nan;99928.03;5026160;28;19925;-84
2023/03/27 02:06:21;;;;;;;;;;;;;;;3.46;nan;99924.75;5026757;28;19964;-85
2023/03/27 02:09:07;;;;;;;;;;;;;;;3.47;nan;99932.44;5025417;28;19913;-84
2023/03/27 02:11:36;;;;;;;;;;;;;;;3.46;nan;99938.66;5014851;28;19948;-85
2023/03/27 02:14:05;;;;;;;;;;;;;;;3.52;nan;99940.75;5032468;28;19984;-86
2023/03/27 02:16:32;;;;;;;;;;;;;;;3.50;nan;99949.69;5000221;28;19963;-84
2023/03/27 02:19:00;;;;;;;;;;;;;;;3.53;nan;99952.91;5012833;28;19974;-86
2023/03/27 02:21:25;;;;;;;;;;;;;;;3.53;nan;99965.97;5029351;28;19935;-85
2023/03/27 02:23:51;;;;;;;;;;;;;;;3.52;nan;99966.06;5032315;28;19913;-82
2023/03/27 02:26:17;;;;;;;;;;;;;;;3.46;nan;99977.03;5031155;28;19917;-84
2023/03/27 02:28:45;;;;;;;;;;;;;;;3.39;nan;99981.91;5013606;28;19916;-85
2023/03/27 02:31:18;;;;;;;;;;;;;;;3.37;nan;99989.00;5008731;28;19913;-85
2023/03/27 02:34:01;;;;;;;;;;;;;;;3.35;nan;99994.34;5014085;28;19916;-83
2023/03/27 02:36:27;;;;;;;;;;;;;;;3.34;nan;99999.72;5009012;28;20286;-83
2023/03/27 02:39:04;;;;;;;;;;;;;;;3.28;nan;100008.84;5013432;28;19936;-85
2023/03/27 02:41:39;;;;;;;;;;;;;;;3.30;nan;100011.34;5012828;28;19918;-82
2023/03/27 02:44:23;;;;;;;;;;;;;;;3.23;nan;100023.22;5012392;28;19971;-83
2023/03/27 02:46:57;;;;;;;;;;;;;;;3.12;nan;100042.31;5009247;28;19924;-83
2023/03/27 02:49:27;;;;;;;;;;;;;;;2.95;nan;100044.41;5013796;28;20499;-83
2023/03/27 02:52:00;;;;;;;;;;;;;;;2.82;nan;100048.06;5024515;28;19916;-85
2023/03/27 02:54:28;;;;;;;;;;;;;;;2.67;nan;100053.47;5030773;28;19929;-85
2023/03/27 02:56:59;;;;;;;;;;;;;;;2.55;nan;100067.38;5010130;28;19917;-83
2023/03/27 02:59:29;;;;;;;;;;;;;;;2.45;nan;100075.06;5005653;28;19920;-82
2023/03/27 03:01:55;;;;;;;;;;;;;;;2.37;nan;100068.75;5005058;28;20403;-83
2023/03/27 03:04:27;;;;;;;;;;;;;;;2.25;nan;100081.72;5033540;28;19920;-83
2023/03/27 03:06:52;;;;;;;;;;;;;;;2.24;nan;100087.88;5016621;28;19924;-82
2023/03/27 03:09:18;;;;;;;;;;;;;;;2.15;nan;100093.75;5028239;28;19916;-83
2023/03/27 03:11:45;;;;;;;;;;;;;;;2.09;nan;100094.19;5014565;28;19917;-85
2023/03/27 03:14:11;;;;;;;;;;;;;;;1.97;nan;100101.09;5016351;28;20000;-85
2023/03/27 03:16:36;;;;;;;;;;;;;;;1.99;nan;100101.81;5015643;28;19968;-83
2023/03/27 03:19:02;;;;;;;;;;;;;;;1.99;nan;100101.81;5019392;28;19924;-84
2023/03/27 03:21:27;;;;;;;;;;;;;;;1.96;nan;100115.06;5033904;28;19917;-83
2023/03/27 03:23:52;;;;;;;;;;;;;;;1.94;nan;100121.34;5017053;28;20084;-85
2023/03/27 03:26:18;;;;;;;;;;;;;;;1.90;nan;100124.13;5012008;28;19913;-84
2023/03/27 03:28:43;;;;;;;;;;;;;;;1.85;nan;100130.63;5015392;28;19996;-83
2023/03/27 03:31:11;;;;;;;;;;;;;;;1.76;nan;100126.84;5013623;28;19925;-86
2023/03/27 03:33:36;;;;;;;;;;;;;;;1.73;nan;100137.50;5013779;28;19956;-85
2023/03/27 03:36:02;;;;;;;;;;;;;;;1.68;nan;100143.03;5016006;28;19928;-82
2023/03/27 03:38:29;;;;;;;;;;;;;;;1.65;nan;100147.63;5016694;28;19913;-83
2023/03/27 03:40:55;;;;;;;;;;;;;;;1.59;nan;100156.69;5033770;28;19927;-85
2023/03/27 03:43:20;;;;;;;;;;;;;;;1.56;nan;100161.28;5032288;28;19917;-83
2023/03/27 03:45:46;;;;;;;;;;;;;;;1.53;nan;100172.75;5024609;28;20039;-83
2023/03/27 03:48:11;;;;;;;;;;;;;;;1.53;nan;100190.97;5028208;28;19928;-86
2023/03/27 03:50:36;;;;;;;;;;;;;;;1.48;nan;100193.06;5086886;23;19920;-84
2023/03/27 03:53:01;;;;;;;;;;;;;;;1.41;nan;100199.63;5049715;28;19928;-84
2023/03/27 03:55:26;;;;;;;;;;;;;;;1.35;nan;100206.03;5062752;28;19913;-85
2023/03/27 03:57:51;;;;;;;;;;;;;;;1.33;nan;100207.09;5067734;28;19917;-85
2023/03/27 04:00:17;;;;;;;;;;;;;;;1.29;nan;100206.47;5063055;28;19920;-84
2023/03/27 04:02:43;;;;;;;;;;;;;;;1.22;nan;100215.63;5052805;28;20282;-84
2023/03/27 04:05:08;;;;;;;;;;;;;;;1.19;nan;100226.22;5058976;28;19986;-85
2023/03/27 04:07:34;;;;;;;;;;;;;;;1.19;nan;100228.81;5067869;28;20328;-83
2023/03/27 04:09:59;;;;;;;;;;;;;;;1.16;nan;100231.63;5059635;28;20012;-84
2023/03/27 04:12:25;;;;;;;;;;;;;;;1.11;nan;100239.72;5041856;28;19920;-84
2023/03/27 04:14:50;;;;;;;;;;;;;;;1.06;nan;100241.78;5043150;28;19981;-85
2023/03/27 04:17:16;;;;;;;;;;;;;;;1.01;nan;100249.91;5051676;28;19912;-85
2023/03/27 04:19:45;;;;;;;;;;;;;;;1.00;nan;100261.25;5055364;28;19916;-85
2023/03/27 04:22:11;;;;;;;;;;;;;;;0.94;nan;100266.00;5048965;28;19917;-86
2023/03/27 04:24:36;;;;;;;;;;;;;;;0.90;nan;100280.97;5053980;28;19917;-85
2023/03/27 04:27:01;;;;;;;;;;;;;;;0.84;nan;100286.56;5052527;28;19916;-83
2023/03/27 04:29:29;;;;;;;;;;;;;;;0.79;nan;100291.25;5045044;28;19947;-84
2023/03/27 04:31:56;;;;;;;;;;;;;;;0.75;nan;100300.16;5056302;28;19951;-85
2023/03/27 04:34:21;;;;;;;;;;;;;;;0.69;nan;100293.56;5067255;28;20129;-85
2023/03/27 04:36:46;;;;;;;;;;;;;;;0.74;nan;100301.06;5060793;28;20369;-86
2023/03/27 04:39:11;;;;;;;;;;;;;;;0.77;nan;100303.50;5049828;28;19916;-85
2023/03/27 04:41:37;;;;;;;;;;;;;;;0.82;nan;100317.91;5068096;28;20468;-86
2023/03/27 04:44:02;;;;;;;;;;;;;;;0.82;nan;100323.09;5055755;28;19942;-85
2023/03/27 04:46:28;;;;;;;;;;;;;;;0.80;nan;100330.16;5072923;28;19916;-84
2023/03/27 04:48:53;;;;;;;;;;;;;;;0.77;nan;100329.53;5050383;28;19923;-85
2023/03/27 04:51:18;;;;;;;;;;;;;;;0.75;nan;100341.78;5054051;28;19927;-84
2023/03/27 04:53:44;;;;;;;;;;;;;;;0.75;nan;100344.41;5080289;28;19920;-84
2023/03/27 04:56:09;;;;;;;;;;;;;;;0.76;nan;100346.06;5047806;28;19928;-83
2023/03/27 04:58:35;;;;;;;;;;;;;;;0.79;nan;100354.53;5051754;28;20392;-86
2023/03/27 05:01:01;;;;;;;;;;;;;;;0.81;nan;100357.03;5061966;28;19956;-86
2023/03/27 05:03:27;;;;;;;;;;;;;;;0.82;nan;100361.31;5063634;28;19916;-84
2023/03/27 05:05:52;;;;;;;;;;;;;;;0.83;nan;100363.84;5044713;28;19978;-85
2023/03/27 05:08:18;;;;;;;;;;;;;;;0.81;nan;100368.28;5064272;28;19913;-84
2023/03/27 05:10:44;;;;;;;;;;;;;;;0.78;nan;100378.88;5062242;28;19979;-85
2023/03/27 05:13:09;;;;;;;;;;;;;;;0.78;nan;100389.28;5064321;28;19913;-85
2023/03/27 05:15:34;;;;;;;;;;;;;;;0.81;nan;100389.13;5048464;28;19920;-85
2023/03/27 05:17:59;;;;;;;;;;;;;;;0.78;nan;100393.66;5074484;28;19951;-83
2023/03/27 05:20:25;;;;;;;;;;;;;;;0.68;nan;100398.56;5061485;28;19924;-85
2023/03/27 05:22:55;;;;;;;;;;;;;;;0.58;nan;100407.88;5071618;28;19986;-84
2023/03/27 05:25:20;;;;;;;;;;;;;;;0.53;nan;100418.53;5049873;28;19917;-85
2023/03/27 05:27:50;;;;;;;;;;;;;;;0.49;nan;100419.63;5043026;28;19945;-84
2023/03/27 05:30:16;;;;;;;;;;;;;;;0.49;nan;100427.44;5049224;28;19956;-85
2023/03/27 05:32:47;;;;;;;;;;;;;;;0.49;nan;100431.81;5071365;28;19919;-85
2023/03/27 05:35:13;;;;;;;;;;;;;;;0.48;nan;100435.31;5048358;28;19944;-84
2023/03/27 05:37:38;;;;;;;;;;;;;;;0.48;nan;100450.94;5056789;28;19925;-86
2023/03/27 05:40:04;;;;;;;;;;;;;;;0.44;nan;100452.91;5055428;28;19998;-85
2023/03/27 05:42:30;;;;;;;;;;;;;;;0.46;nan;100460.63;5052947;28;19920;-84
2023/03/27 05:44:55;;;;;;;;;;;;;;;0.48;nan;100469.16;5044608;28;20011;-84
2023/03/27 05:47:20;;;;;;;;;;;;;;;0.48;nan;100469.16;5037902;28;20469;-84
2023/03/27 05:49:45;;;;;;;;;;;;;;;0.51;nan;100467.22;5049718;28;19923;-84
2023/03/27 05:52:11;;;;;;;;;;;;;;;0.54;nan;100480.03;5040293;28;19923;-83
2023/03/27 05:54:36;;;;;;;;;;;;;;;0.58;nan;100478.94;5056132;28;20394;-82
2023/03/27 05:57:02;;;;;;;;;;;;;;;0.62;nan;100493.47;5067844;28;19917;-83
2023/03/27 05:59:27;;;;;;;;;;;;;;;0.65;nan;100495.06;5051184;28;19916;-84
2023/03/27 06:02:02;;;;;;;;;;;;;;;0.73;nan;100499.81;5051042;28;19917;-84
2023/03/27 06:04:29;;;;;;;;;;;;;;;0.85;nan;100505.13;5051016;28;19924;-82
2023/03/27 06:06:55;;;;;;;;;;;;;;;1.14;nan;100505.16;5053877;28;20450;-84
2023/03/27 06:09:20;;;;;;;;;;;;;;;1.54;nan;100512.34;5040346;28;19916;-84
2023/03/27 06:11:46;;;;;;;;;;;;;;;1.70;nan;100513.06;5058544;28;20145;-84
2023/03/27 06:14:11;;;;;;;;;;;;;;;1.64;nan;100523.84;5049411;28;19943;-84
2023/03/27 06:16:36;;;;;;;;;;;;;;;1.52;nan;100533.25;5042326;28;19921;-82
2023/03/27 06:19:02;;;;;;;;;;;;;;;1.59;nan;100544.16;5039030;28;19920;-84
2023/03/27 06:21:27;;;;;;;;;;;;;;;1.97;nan;100557.44;5041820;28;19955;-84
2023/03/27 06:23:52;;;;;;;;;;;;;;;2.36;nan;100568.03;5036336;28;19924;-85
2023/03/27 06:26:18;;;;;;;;;;;;;;;2.81;nan;100572.06;5042313;28;19917;-84
2023/03/27 06:28:43;;;;;;;;;;;;;;;3.41;nan;100573.31;5037073;28;19916;-83
2023/03/27 06:31:08;;;;;;;;;;;;;;;4.08;nan;100580.03;5050496;28;19912;-85
2023/03/27 06:33:34;;;;;;;;;;;;;;;4.59;nan;100592.91;5038702;28;19974;-85
2023/03/27 06:36:00;;;;;;;;;;;;;;;4.57;nan;100595.63;5063716;28;19923;-86
2023/03/27 06:38:28;;;;;;;;;;;;;;;4.61;nan;100606.75;5063229;28;20007;-85
2023/03/27 06:40:54;;;;;;;;;;;;;;;4.70;nan;100608.69;5065572;28;19935;-86
2023/03/27 06:43:21;;;;;;;;;;;;;;;4.49;nan;100603.22;5050812;28;19913;-84
2023/03/27 06:45:47;;;;;;;;;;;;;;;4.13;nan;100611.94;5063756;28;19952;-84
2023/03/27 06:48:13;;;;;;;;;;;;;;;3.81;nan;100610.63;5052677;28;19920;-84
2023/03/27 06:50:38;;;;;;;;;;;;;;;3.73;nan;100617.31;5042410;28;19916;-85
2023/03/27 06:53:04;;;;;;;;;;;;;;;3.57;nan;100631.41;5077093;28;19958;-85
2023/03/27 06:55:30;;;;;;;;;;;;;;;3.29;nan;100634.22;5077615;28;20392;-83
2023/03/27 06:57:57;;;;;;;;;;;;;;;3.09;nan;100636.38;5041531;28;20309;-84
2023/03/27 07:00:25;;;;;;;;;;;;;;;3.02;nan;100636.91;5063444;28;19923;-86
2023/03/27 07:03:04;;;;;;;;;;;;;;;3.49;nan;100638.97;5055035;28;19944;-85
2023/03/27 07:05:30;;;;;;;;;;;;;;;4.41;nan;100643.06;5034966;28;19912;-85
2023/03/27 07:07:56;;;;;;;;;;;;;;;5.08;nan;100647.81;5057419;28;19948;-84
2023/03/27 07:10:22;;;;;;;;;;;;;;;5.46;nan;100657.22;5062583;28;19975;-85
2023/03/27 07:12:48;;;;;;;;;;;;;;;5.71;nan;100661.44;5076299;28;20359;-85
2023/03/27 07:15:13;;;;;;;;;;;;;;;6.15;nan;100669.50;5065183;28;19917;-85
2023/03/27 07:17:40;;;;;;;;;;;;;;;6.20;nan;100675.22;5062395;28;19919;-85
2023/03/27 07:20:06;;;;;;;;;;;;;;;6.18;nan;100682.38;5042864;28;19920;-85
2023/03/27 07:22:31;;;;;;;;;;;;;;;6.18;nan;100678.94;5070753;28;19912;-85
2023/03/27 07:24:57;;;;;;;;;;;;;;;6.47;nan;100685.34;5050543;28;20034;-85
2023/03/27 07:27:23;;;;;;;;;;;;;;;6.92;nan;100700.19;5042734;28;19924;-84
2023/03/27 07:29:48;;;;;;;;;;;;;;;7.35;nan;100702.78;5068185;28;19912;-85
2023/03/27 07:32:13;;;;;;;;;;;;;;;7.50;nan;100715.63;5061687;28;20260;-85
2023/03/27 07:34:39;;;;;;;;;;;;;;;7.56;nan;100717.75;5037862;28;20386;-85
2023/03/27 07:37:04;;;;;;;;;;;;;;;7.19;nan;100716.34;5042551;28;19916;-84
2023/03/27 07:39:29;;;;;;;;;;;;;;;7.38;nan;100723.56;5067607;28;19912;-84
2023/03/27 07:41:54;;;;;;;;;;;;;;;7.12;nan;100730.13;5074340;28;19983;-84
2023/03/27 07:44:20;;;;;;;;;;;;;;;7.43;nan;100734.53;5050369;28;19912;-84
2023/03/27 07:46:45;;;;;;;;;;;;;;;7.44;nan;100736.22;5048141;28;20575;-83
2023/03/27 07:49:12;;;;;;;;;;;;;;;7.70;nan;100735.88;5055133;28;19922;-83
2023/03/27 07:51:37;;;;;;;;;;;;;;;7.98;nan;100744.88;5073231;28;19962;-83
2023/03/27 07:54:03;;;;;;;;;;;;;;;8.08;nan;100737.91;5057790;28;19917;-83
2023/03/27 07:56:29;;;;;;;;;;;;;;;8.38;nan;100741.50;5053744;28;19913;-84
2023/03/27 07:58:54;;;;;;;;;;;;;;;8.64;nan;100738.44;5051354;28;19923;-84
2023/03/27 08:01:19;;;;;;;;;;;;;;;8.66;nan;100747.06;5063598;28;19959;-84
2023/03/27 08:03:47;;;;;;;;;;;;;;;8.90;nan;100744.88;5042496;28;19946;-83
2023/03/27 08:06:12;;;;;;;;;;;;;;;9.01;nan;100756.28;5072552;28;19913;-84
2023/03/27 08:08:38;;;;;;;;;;;;;;;9.07;nan;100751.31;5049985;28;20388;-84
2023/03/27 08:11:03;;;;;;;;;;;;;;;8.75;nan;100762.06;5054652;28;20199;-84
2023/03/27 08:13:28;;;;;;;;;;;;;;;8.19;nan;100762.47;5062791;28;19917;-84
2023/03/27 08:16:01;;;;;;;;;;;;;;;8.13;nan;100770.88;5040681;28;19922;-84
2023/03/27 08:18:26;;;;;;;;;;;;;;;7.80;nan;100775.41;5053341;28;19913;-83
2023/03/27 08:20:56;;;;;;;;;;;;;;;7.21;nan;100776.72;5077448;28;19912;-84
2023/03/27 08:23:21;;;;;;;;;;;;;;;6.81;nan;100782.50;5079165;28;19982;-83
2023/03/27 08:25:49;;;;;;;;;;;;;;;6.94;nan;100790.28;5079070;28;19959;-84
2023/03/27 08:28:15;;;;;;;;;;;;;;;7.56;nan;100794.06;5077895;28;19916;-84
2023/03/27 08:30:41;;;;;;;;;;;;;;;7.47;nan;100790.38;5051159;28;19912;-85
2023/03/27 08:33:08;;;;;;;;;;;;;;;7.72;nan;100793.63;5037166;28;19919;-84
2023/03/27 08:35:33;;;;;;;;;;;;;;;7.31;nan;100796.03;5044835;28;19935;-84
2023/03/27 08:37:59;;;;;;;;;;;;;;;6.76;nan;100803.06;5067321;28;19916;-84
2023/03/27 08:40:26;;;;;;;;;;;;;;;6.69;nan;100804.50;5058965;28;19988;-85
2023/03/27 08:42:53;;;;;;;;;;;;;;;7.73;nan;100805.84;5059629;28;19908;-85
2023/03/27 08:45:21;;;;;;;;;;;;;;;8.06;nan;100808.31;5033084;28;19925;-85
2023/03/27 08:47:50;;;;;;;;;;;;;;;8.41;nan;100807.13;5058567;28;19912;-84
2023/03/27 08:50:28;;;;;;;;;;;;;;;8.67;nan;100799.63;5048654;28;19928;-85
2023/03/27 08:52:53;;;;;;;;;;;;;;;9.24;nan;100807.00;5060124;28;20012;-84
2023/03/27 08:55:24;;;;;;;;;;;;;;;9.32;nan;100812.47;5042441;28;19959;-84
2023/03/27 08:57:50;;;;;;;;;;;;;;;9.85;nan;100813.88;5043458;28;19951;-84
2023/03/27 09:00:21;;;;;;;;;;;;;;;10.18;nan;100818.69;5044268;28;19916;-83
2023/03/27 09:02:50;;;;;;;;;;;;;;;11.01;nan;100812.72;5068241;28;20325;-85
2023/03/27 09:05:34;;;;;;;;;;;;;;;11.62;nan;100816.50;5070020;28;19916;-84
2023/03/27 09:08:09;;;;;;;;;;;;;;;11.82;nan;100811.88;5048364;28;19936;-84
2023/03/27 09:11:00;;;;;;;;;;;;;;;10.76;nan;100824.81;5047638;28;19917;-84
2023/03/27 09:13:38;;;;;;;;;;;;;;;10.95;nan;100821.25;5031216;28;19917;-85
2023/03/27 09:16:06;;;;;;;;;;;;;;;10.65;nan;100825.00;5049181;28;20259;-84
2023/03/27 09:18:32;;;;;;;;;;;;;;;9.79;nan;100818.72;5057082;28;19912;-84
2023/03/27 09:21:06;;;;;;;;;;;;;;;9.32;nan;100823.03;5047014;28;19923;-84
2023/03/27 09:23:42;;;;;;;;;;;;;;;8.61;nan;100817.78;5066171;28;19966;-85
2023/03/27 09:26:10;;;;;;;;;;;;;;;8.39;nan;100819.59;5065746;28;19920;-84
2023/03/27 09:28:38;;;;;;;;;;;;;;;8.70;nan;100822.28;5057680;28;19917;-84
2023/03/27 09:31:23;;;;;;;;;;;;;;;9.21;nan;100833.69;5065666;28;19951;-85
2023/03/27 09:33:48;;;;;;;;;;;;;;;8.78;nan;100825.06;5059895;28;19920;-84
2023/03/27 09:36:14;;;;;;;;;;;;;;;8.09;nan;100829.09;5057369;28;20338;-85
2023/03/27 09:38:45;;;;;;;;;;;;;;;8.04;nan;100827.81;5069876;28;20392;-84
2023/03/27 09:41:13;;;;;;;;;;;;;;;7.70;nan;100825.34;5053628;28;19912;-84
2023/03/27 09:43:44;;;;;;;;;;;;;;;7.73;nan;100826.91;5044068;28;19939;-84
2023/03/27 09:46:11;;;;;;;;;;;;;;;9.59;nan;100834.72;5054989;28;19920;-84
2023/03/27 09:48:52;;;;;;;;;;;;;;;11.17;nan;100823.47;5031190;28;19916;-84
2023/03/27 09:51:39;;;;;;;;;;;;;;;11.24;nan;100829.84;5057016;28;20384;-84
2023/03/27 09:54:05;;;;;;;;;;;;;;;10.18;nan;100836.38;5060206;28;19984;-85
2023/03/27 09:56:33;;;;;;;;;;;;;;;9.18;nan;100832.16;5053794;28;20262;-84
2023/03/27 09:58:59;;;;;;;;;;;;;;;8.50;nan;100832.69;5044731;28;19920;-84
2023/03/27 10:01:33;;;;;;;;;;;;;;;8.15;nan;100845.34;5051322;28;19981;-84
2023/03/27 10:03:59;;;;;;;;;;;;;;;7.75;nan;100848.69;5031751;28;19913;-84
2023/03/27 10:06:29;;;;;;;;;;;;;;;7.64;nan;100849.53;5037263;28;20449;-83
2023/03/27 10:08:55;;;;;;;;;;;;;;;7.48;nan;100849.94;5033194;28;19946;-84
2023/03/27 10:11:29;;;;;;;;;;;;;;;7.66;nan;100852.88;5037278;28;19916;-84
2023/03/27 10:13:55;;;;;;;;;;;;;;;8.06;nan;100849.59;5042260;28;19920;-84
2023/03/27 10:16:21;;;;;;;;;;;;;;;9.36;nan;100843.69;5036847;28;20443;-83
2023/03/27 10:18:48;;;;;;;;;;;;;;;10.31;nan;100850.13;5052368;28;19920;-84
2023/03/27 10:21:34;;;;;;;;;;;;;;;10.33;nan;100853.47;5042569;28;20169;-85
2023/03/27 10:24:19;;;;;;;;;;;;;;;10.20;nan;100852.88;5038836;28;19916;-85
2023/03/27 10:26:46;;;;;;;;;;;;;;;10.62;nan;100845.44;5057687;28;19947;-84
2023/03/27 10:29:23;;;;;;;;;;;;;;;11.11;nan;100845.25;5040780;28;19939;-85
2023/03/27 10:31:50;;;;;;;;;;;;;;;10.37;nan;100841.66;5044786;28;19918;-84
2023/03/27 10:34:31;;;;;;;;;;;;;;;9.82;nan;100838.75;5048024;28;19916;-85
2023/03/27 10:36:56;;;;;;;;;;;;;;;9.77;nan;100838.31;5055703;28;20654;-85
2023/03/27 10:39:25;;;;;;;;;;;;;;;9.67;nan;100838.31;5044263;28;19968;-86
2023/03/27 10:41:51;;;;;;;;;;;;;;;8.98;nan;100846.22;5069388;28;19932;-84
2023/03/27 10:44:17;;;;;;;;;;;;;;;8.41;nan;100848.47;5037293;28;19912;-84
2023/03/27 10:46:43;;;;;;;;;;;;;;;8.27;nan;100849.59;5053688;28;19913;-84
2023/03/27 10:49:09;;;;;;;;;;;;;;;8.04;nan;100856.78;5055140;28;19927;-84
2023/03/27 10:51:40;;;;;;;;;;;;;;;8.16;nan;100863.69;5053551;28;20327;-84
2023/03/27 10:54:25;;;;;;;;;;;;;;;10.00;nan;100852.91;5054015;28;19951;-85
2023/03/27 10:56:57;;;;;;;;;;;;;;;12.06;nan;100857.16;5003148;28;19916;-86
2023/03/27 10:59:29;;;;;;;;;;;;;;;12.49;nan;100852.84;5045141;28;19925;-85
2023/03/27 11:01:58;;;;;;;;;;;;;;;12.26;nan;100856.97;5047936;28;19916;-86
2023/03/27 11:04:27;;;;;;;;;;;;;;;10.82;nan;100864.75;5052148;28;20421;-86
2023/03/27 11:06:56;;;;;;;;;;;;;;;9.88;nan;100869.06;5062583;28;19917;-85
2023/03/27 11:09:23;;;;;;;;;;;;;;;9.32;nan;100863.44;5051860;28;19968;-85
2023/03/27 11:12:03;;;;;;;;;;;;;;;9.07;nan;100874.47;5032569;28;19940;-84
2023/03/27 11:14:33;;;;;;;;;;;;;;;8.54;nan;100872.81;5048878;28;19951;-86
2023/03/27 11:17:02;;;;;;;;;;;;;;;8.17;nan;100901.38;5058103;28;20395;-85
2023/03/27 11:19:37;;;;;;;;;;;;;;;7.36;nan;100916.69;5065742;28;19978;-85
2023/03/27 11:22:04;;;;;;;;;;;;;;;6.52;nan;100930.13;5053896;28;19923;-83
2023/03/27 11:24:37;;;;;;;;;;;;;;;6.05;nan;100936.28;5043102;28;19912;-83
2023/03/27 11:27:11;;;;;;;;;;;;;;;6.00;nan;100936.63;5049168;28;20034;-85
2023/03/27 11:29:55;;;;;;;;;;;;;;;5.81;nan;100942.34;5052291;28;19942;-85
2023/03/27 11:32:39;;;;;;;;;;;;;;;5.99;nan;100942.84;5052171;28;19932;-86
2023/03/27 11:35:10;;;;;;;;;;;;;;;6.07;nan;100940.47;5042875;28;20285;-84
2023/03/27 11:37:36;;;;;;;;;;;;;;;6.29;nan;100945.00;5065805;28;19981;-84
2023/03/27 11:40:22;;;;;;;;;;;;;;;6.43;nan;100945.75;5052617;28;19960;-85
2023/03/27 11:42:48;;;;;;;;;;;;;;;6.77;nan;100944.91;5031094;28;20297;-84
2023/03/27 11:45:16;;;;;;;;;;;;;;;8.67;nan;100939.34;5061385;28;19913;-85
2023/03/27 11:48:00;;;;;;;;;;;;;;;10.77;nan;100938.44;5044385;28;19913;-85
2023/03/27 11:50:40;;;;;;;;;;;;;;;11.07;nan;100938.34;5043594;28;20002;-85
2023/03/27 11:53:07;;;;;;;;;;;;;;;11.08;nan;100932.88;5047615;28;19935;-85
2023/03/27 11:55:32;;;;;;;;;;;;;;;11.14;nan;100929.66;5046331;28;19921;-86
2023/03/27 11:58:06;;;;;;;;;;;;;;;11.59;nan;100934.19;5059447;28;20065;-85
2023/03/27 12:00:47;;;;;;;;;;;;;;;11.71;nan;100939.28;5061395;28;19948;-85
2023/03/27 12:03:13;;;;;;;;;;;;;;;11.21;nan;100930.75;5059801;28;19976;-85
2023/03/27 12:05:57;;;;;;;;;;;;;;;10.97;nan;100933.06;5060037;28;19967;-86
2023/03/27 12:08:58;;;;;;;;;;;;;;;11.15;nan;100933.97;5058827;28;19916;-85
2023/03/27 12:11:24;;;;;;;;;;;;;;;11.13;nan;100932.44;4960498;28;19914;-85
2023/03/27 12:14:05;;;;;;;;;;;;;;;11.31;nan;100922.75;5027894;28;19961;-85
2023/03/27 12:16:41;;;;;;;;;;;;;;;10.46;nan;100913.97;5039722;28;19916;-84
2023/03/27 12:19:25;;;;;;;;;;;;;;;10.27;nan;100925.34;5041291;28;19923;-84
2023/03/27 12:22:03;;;;;;;;;;;;;;;10.93;nan;100921.94;5059279;28;20568;-85
2023/03/27 12:24:37;;;;;;;;;;;;;;;10.92;nan;100919.44;5041622;28;20025;-85
2023/03/27 12:27:04;;;;;;;;;;;;;;;11.13;nan;100920.06;5059080;28;19933;-85
2023/03/27 12:29:42;;;;;;;;;;;;;;;10.80;nan;100914.31;5056269;28;19923;-85
2023/03/27 12:32:40;;;;;;;;;;;;;;;10.69;nan;100914.47;5038458;28;20475;-84
2023/03/27 12:35:11;;;;;;;;;;;;;;;10.39;nan;100918.13;5058541;28;19916;-84
2023/03/27 12:37:42;;;;;;;;;;;;;;;10.15;nan;100902.69;5057115;28;19917;-84
2023/03/27 12:40:33;;;;;;;;;;;;;;;9.71;nan;100902.25;5056739;28;19920;-84
2023/03/27 12:43:02;;;;;;;;;;;;;;;9.57;nan;100911.41;5052241;28;19920;-84
2023/03/27 12:45:27;;;;;;;;;;;;;;;9.32;nan;100902.19;5052857;28;19923;-84
2023/03/27 12:48:05;;;;;;;;;;;;;;;9.03;nan;100913.44;5041868;28;19917;-84
2023/03/27 12:50:40;;;;;;;;;;;;;;;8.71;nan;100898.59;5059205;28;19917;-84
2023/03/27 12:53:05;;;;;;;;;;;;;;;8.74;nan;100905.41;5042191;28;20250;-85
2023/03/27 12:55:32;;;;;;;;;;;;;;;8.78;nan;100903.34;5060445;28;19988;-85
2023/03/27 12:57:58;;;;;;;;;;;;;;;8.86;nan;100916.69;5025271;28;20080;-83
2023/03/27 13:00:24;;;;;;;;;;;;;;;;;;5046850;28;19920;-84
2023/03/27 13:02:49;;;;;;;;;;;;;;;;;;5058560;28;19966;-84
2023/03/27 13:05:15;;;;;;;;;;;;;;;;;;5048172;28;19928;-84
2023/03/27 13:07:40;;;;;;;;;;;;;;;;;;5059547;28;19912;-85
2023/03/27 13:10:05;;;;;;;;;;;;;;;;;;5036241;28;20262;-85
2023/03/27 13:12:31;;;;;;;;;;;;;;;;;;5035288;28;19944;-86
2023/03/27 13:14:56;;;;;;;;;;;;;;;;;;5043125;28;19947;-85
2023/03/27 13:17:22;;;;;;;;;;;;;;;;;;5044356;28;19913;-85
2023/03/27 13:19:47;;;;;;;;;;;;;;;;;;5045111;28;20292;-84
2023/03/27 13:22:12;;;;;;;;;;;;;;;;;;5041728;28;19913;-83
2023/03/27 13:24:37;;;;;;;;;;;;;;;;;;5028432;28;20222;-85